sensor_id;sensor_type;location;lat;lon;timestamp;temperature;humidity
38436;DHT22;24220;48.168;14.024;2023-04-06T00:01:50;9.10;43.90
38436;DHT22;24220;48.168;14.024;2023-04-06T00:04:20;9.00;43.80
38436;DHT22;24220;48.168;14.024;2023-04-06T00:06:48;9.00;43.80
38436;DHT22;24220;48.168;14.024;2023-04-06T00:09:17;9.00;43.90
38436;DHT22;24220;48.168;14.024;2023-04-06T00:11:45;9.00;44.30
38436;DHT22;24220;48.168;14.024;2023-04-06T00:14:12;8.90;44.40
38436;DHT22;24220;48.168;14.024;2023-04-06T00:16:44;8.90;44.40
38436;DHT22;24220;48.168;14.024;2023-04-06T00:19:11;9.00;44.10
38436;DHT22;24220;48.168;14.024;2023-04-06T00:21:38;9.00;44.40
38436;DHT22;24220;48.168;14.024;2023-04-06T00:24:08;8.90;44.50
38436;DHT22;24220;48.168;14.024;2023-04-06T00:26:36;8.90;44.70
38436;DHT22;24220;48.168;14.024;2023-04-06T00:29:03;8.90;44.90
38436;DHT22;24220;48.168;14.024;2023-04-06T00:31:32;8.80;44.90
38436;DHT22;24220;48.168;14.024;2023-04-06T00:34:05;8.80;45.00
38436;DHT22;24220;48.168;14.024;2023-04-06T00:36:33;8.80;45.20
38436;DHT22;24220;48.168;14.024;2023-04-06T00:39:02;8.80;45.20
38436;DHT22;24220;48.168;14.024;2023-04-06T00:41:30;8.80;45.40
38436;DHT22;24220;48.168;14.024;2023-04-06T00:44:03;8.80;45.50
38436;DHT22;24220;48.168;14.024;2023-04-06T00:46:31;8.80;45.50
38436;DHT22;24220;48.168;14.024;2023-04-06T00:48:58;8.80;45.10
38436;DHT22;24220;48.168;14.024;2023-04-06T00:51:25;8.80;45.20
38436;DHT22;24220;48.168;14.024;2023-04-06T00:53:53;8.80;45.40
38436;DHT22;24220;48.168;14.024;2023-04-06T00:56:23;8.70;45.40
38436;DHT22;24220;48.168;14.024;2023-04-06T00:58:53;8.70;45.50
38436;DHT22;24220;48.168;14.024;2023-04-06T01:01:20;8.70;45.70
38436;DHT22;24220;48.168;14.024;2023-04-06T01:03:50;8.70;45.80
38436;DHT22;24220;48.168;14.024;2023-04-06T01:06:20;8.60;46.60
38436;DHT22;24220;48.168;14.024;2023-04-06T01:08:48;8.60;46.20
38436;DHT22;24220;48.168;14.024;2023-04-06T01:11:18;8.60;46.10
38436;DHT22;24220;48.168;14.024;2023-04-06T01:13:46;8.60;46.20
38436;DHT22;24220;48.168;14.024;2023-04-06T01:16:13;8.60;46.30
38436;DHT22;24220;48.168;14.024;2023-04-06T01:18:41;8.60;46.30
38436;DHT22;24220;48.168;14.024;2023-04-06T01:21:09;8.50;46.30
38436;DHT22;24220;48.168;14.024;2023-04-06T01:23:45;8.50;46.30
38436;DHT22;24220;48.168;14.024;2023-04-06T01:26:13;8.50;46.40
38436;DHT22;24220;48.168;14.024;2023-04-06T01:28:40;8.50;46.50
38436;DHT22;24220;48.168;14.024;2023-04-06T01:31:11;8.40;46.40
38436;DHT22;24220;48.168;14.024;2023-04-06T01:33:38;8.40;46.50
38436;DHT22;24220;48.168;14.024;2023-04-06T01:36:06;8.40;46.40
38436;DHT22;24220;48.168;14.024;2023-04-06T01:38:33;8.40;46.60
38436;DHT22;24220;48.168;14.024;2023-04-06T01:41:00;8.30;46.40
38436;DHT22;24220;48.168;14.024;2023-04-06T01:43:30;8.30;46.50
38436;DHT22;24220;48.168;14.024;2023-04-06T01:45:57;8.30;46.50
38436;DHT22;24220;48.168;14.024;2023-04-06T01:48:27;8.30;46.60
38436;DHT22;24220;48.168;14.024;2023-04-06T01:50:57;8.30;46.70
38436;DHT22;24220;48.168;14.024;2023-04-06T01:53:24;8.20;46.80
38436;DHT22;24220;48.168;14.024;2023-04-06T01:55:52;8.20;47.00
38436;DHT22;24220;48.168;14.024;2023-04-06T01:58:19;8.20;46.90
38436;DHT22;24220;48.168;14.024;2023-04-06T02:00:46;8.20;46.90
38436;DHT22;24220;48.168;14.024;2023-04-06T02:03:14;8.10;46.80
38436;DHT22;24220;48.168;14.024;2023-04-06T02:05:44;8.10;46.80
38436;DHT22;24220;48.168;14.024;2023-04-06T02:08:11;8.10;47.10
38436;DHT22;24220;48.168;14.024;2023-04-06T02:10:39;8.00;47.20
38436;DHT22;24220;48.168;14.024;2023-04-06T02:13:08;8.00;47.20
38436;DHT22;24220;48.168;14.024;2023-04-06T02:15:35;8.00;47.30
38436;DHT22;24220;48.168;14.024;2023-04-06T02:18:03;8.00;47.30
38436;DHT22;24220;48.168;14.024;2023-04-06T02:20:30;7.90;47.30
38436;DHT22;24220;48.168;14.024;2023-04-06T02:23:01;7.90;47.40
38436;DHT22;24220;48.168;14.024;2023-04-06T02:25:31;8.00;47.60
38436;DHT22;24220;48.168;14.024;2023-04-06T02:27:58;7.90;47.70
38436;DHT22;24220;48.168;14.024;2023-04-06T02:30:27;7.90;47.70
38436;DHT22;24220;48.168;14.024;2023-04-06T02:32:56;7.90;47.60
38436;DHT22;24220;48.168;14.024;2023-04-06T02:35:28;7.90;47.60
38436;DHT22;24220;48.168;14.024;2023-04-06T02:37:58;7.80;47.80
38436;DHT22;24220;48.168;14.024;2023-04-06T02:40:25;7.90;47.70
38436;DHT22;24220;48.168;14.024;2023-04-06T02:42:53;7.80;48.50
38436;DHT22;24220;48.168;14.024;2023-04-06T02:45:20;7.80;48.10
38436;DHT22;24220;48.168;14.024;2023-04-06T02:47:50;7.80;48.10
38436;DHT22;24220;48.168;14.024;2023-04-06T02:50:20;7.80;48.20
38436;DHT22;24220;48.168;14.024;2023-04-06T02:52:47;7.80;48.30
38436;DHT22;24220;48.168;14.024;2023-04-06T02:55:19;7.80;48.30
38436;DHT22;24220;48.168;14.024;2023-04-06T02:57:49;7.80;48.30
38436;DHT22;24220;48.168;14.024;2023-04-06T03:00:19;7.80;48.20
38436;DHT22;24220;48.168;14.024;2023-04-06T03:02:48;7.80;48.00
38436;DHT22;24220;48.168;14.024;2023-04-06T03:05:16;7.80;48.00
38436;DHT22;24220;48.168;14.024;2023-04-06T03:07:46;7.70;48.00
38436;DHT22;24220;48.168;14.024;2023-04-06T03:10:13;7.70;48.10
38436;DHT22;24220;48.168;14.024;2023-04-06T03:12:42;7.70;48.00
38436;DHT22;24220;48.168;14.024;2023-04-06T03:15:12;7.70;48.00
38436;DHT22;24220;48.168;14.024;2023-04-06T03:17:42;7.70;48.10
38436;DHT22;24220;48.168;14.024;2023-04-06T03:20:10;7.70;48.30
38436;DHT22;24220;48.168;14.024;2023-04-06T03:22:41;7.70;48.10
38436;DHT22;24220;48.168;14.024;2023-04-06T03:25:09;7.70;48.10
38436;DHT22;24220;48.168;14.024;2023-04-06T03:27:36;7.70;48.10
38436;DHT22;24220;48.168;14.024;2023-04-06T03:30:04;7.70;48.10
38436;DHT22;24220;48.168;14.024;2023-04-06T03:32:31;7.70;48.00
38436;DHT22;24220;48.168;14.024;2023-04-06T03:35:01;7.70;48.10
38436;DHT22;24220;48.168;14.024;2023-04-06T03:37:28;7.70;48.70
38436;DHT22;24220;48.168;14.024;2023-04-06T03:40:00;7.70;48.00
38436;DHT22;24220;48.168;14.024;2023-04-06T03:42:28;7.60;48.10
38436;DHT22;24220;48.168;14.024;2023-04-06T03:44:55;7.60;48.10
38436;DHT22;24220;48.168;14.024;2023-04-06T03:47:28;7.60;48.20
38436;DHT22;24220;48.168;14.024;2023-04-06T03:49:58;7.60;48.30
38436;DHT22;24220;48.168;14.024;2023-04-06T03:52:25;7.60;48.40
38436;DHT22;24220;48.168;14.024;2023-04-06T03:54:53;7.60;48.40
38436;DHT22;24220;48.168;14.024;2023-04-06T03:57:20;7.50;48.40
38436;DHT22;24220;48.168;14.024;2023-04-06T03:59:47;7.50;48.50
38436;DHT22;24220;48.168;14.024;2023-04-06T04:02:20;7.50;48.40
38436;DHT22;24220;48.168;14.024;2023-04-06T04:04:53;7.50;48.50
38436;DHT22;24220;48.168;14.024;2023-04-06T04:07:20;7.40;48.40
38436;DHT22;24220;48.168;14.024;2023-04-06T04:09:48;7.40;48.30
38436;DHT22;24220;48.168;14.024;2023-04-06T04:12:15;7.40;48.30
38436;DHT22;24220;48.168;14.024;2023-04-06T04:14:43;7.30;48.50
38436;DHT22;24220;48.168;14.024;2023-04-06T04:17:13;7.30;48.60
38436;DHT22;24220;48.168;14.024;2023-04-06T04:19:40;7.30;48.60
38436;DHT22;24220;48.168;14.024;2023-04-06T04:22:08;7.30;48.60
38436;DHT22;24220;48.168;14.024;2023-04-06T04:24:35;7.30;48.70
38436;DHT22;24220;48.168;14.024;2023-04-06T04:27:02;7.20;48.70
38436;DHT22;24220;48.168;14.024;2023-04-06T04:29:32;7.20;48.80
38436;DHT22;24220;48.168;14.024;2023-04-06T04:32:00;7.20;48.90
38436;DHT22;24220;48.168;14.024;2023-04-06T04:34:28;7.20;49.00
38436;DHT22;24220;48.168;14.024;2023-04-06T04:36:57;7.20;49.10
38436;DHT22;24220;48.168;14.024;2023-04-06T04:39:27;7.20;49.20
38436;DHT22;24220;48.168;14.024;2023-04-06T04:41:54;7.20;48.70
38436;DHT22;24220;48.168;14.024;2023-04-06T04:44:22;7.20;48.90
38436;DHT22;24220;48.168;14.024;2023-04-06T04:46:52;7.20;48.90
38436;DHT22;24220;48.168;14.024;2023-04-06T04:49:19;7.30;49.60
38436;DHT22;24220;48.168;14.024;2023-04-06T04:51:49;7.20;49.50
38436;DHT22;24220;48.168;14.024;2023-04-06T04:54:19;7.20;49.00
38436;DHT22;24220;48.168;14.024;2023-04-06T04:56:47;7.20;48.90
38436;DHT22;24220;48.168;14.024;2023-04-06T04:59:14;7.20;49.00
38436;DHT22;24220;48.168;14.024;2023-04-06T05:01:42;7.20;49.00
38436;DHT22;24220;48.168;14.024;2023-04-06T05:04:22;7.20;49.10
38436;DHT22;24220;48.168;14.024;2023-04-06T05:07:03;7.10;49.20
38436;DHT22;24220;48.168;14.024;2023-04-06T05:09:30;7.20;49.60
38436;DHT22;24220;48.168;14.024;2023-04-06T05:11:59;7.20;49.50
38436;DHT22;24220;48.168;14.024;2023-04-06T05:14:29;7.20;49.50
38436;DHT22;24220;48.168;14.024;2023-04-06T05:16:59;7.20;49.40
38436;DHT22;24220;48.168;14.024;2023-04-06T05:19:27;7.20;49.60
38436;DHT22;24220;48.168;14.024;2023-04-06T05:21:58;7.20;49.50
38436;DHT22;24220;48.168;14.024;2023-04-06T05:24:26;7.20;49.60
38436;DHT22;24220;48.168;14.024;2023-04-06T05:26:54;7.20;49.60
38436;DHT22;24220;48.168;14.024;2023-04-06T05:29:21;7.20;49.60
38436;DHT22;24220;48.168;14.024;2023-04-06T05:31:48;7.20;49.70
38436;DHT22;24220;48.168;14.024;2023-04-06T05:34:17;7.20;49.70
38436;DHT22;24220;48.168;14.024;2023-04-06T05:36:45;7.30;49.80
38436;DHT22;24220;48.168;14.024;2023-04-06T05:39:14;7.30;49.70
38436;DHT22;24220;48.168;14.024;2023-04-06T05:41:42;7.30;49.70
38436;DHT22;24220;48.168;14.024;2023-04-06T05:44:09;7.30;49.70
38436;DHT22;24220;48.168;14.024;2023-04-06T05:46:37;7.30;49.70
38436;DHT22;24220;48.168;14.024;2023-04-06T05:49:06;7.30;49.70
38436;DHT22;24220;48.168;14.024;2023-04-06T05:51:34;7.40;49.80
38436;DHT22;24220;48.168;14.024;2023-04-06T05:54:04;7.40;49.80
38436;DHT22;24220;48.168;14.024;2023-04-06T05:56:34;7.40;49.80
38436;DHT22;24220;48.168;14.024;2023-04-06T05:59:01;7.50;49.80
38436;DHT22;24220;48.168;14.024;2023-04-06T06:01:28;7.50;49.80
38436;DHT22;24220;48.168;14.024;2023-04-06T06:03:56;7.50;49.80
38436;DHT22;24220;48.168;14.024;2023-04-06T06:06:23;7.50;49.90
38436;DHT22;24220;48.168;14.024;2023-04-06T06:08:50;7.50;49.80
38436;DHT22;24220;48.168;14.024;2023-04-06T06:11:18;7.50;49.80
38436;DHT22;24220;48.168;14.024;2023-04-06T06:13:47;7.60;49.90
38436;DHT22;24220;48.168;14.024;2023-04-06T06:16:16;7.60;49.90
38436;DHT22;24220;48.168;14.024;2023-04-06T06:18:43;7.70;50.00
38436;DHT22;24220;48.168;14.024;2023-04-06T06:21:13;7.70;50.00
38436;DHT22;24220;48.168;14.024;2023-04-06T06:23:42;7.80;50.00
38436;DHT22;24220;48.168;14.024;2023-04-06T06:26:10;7.90;50.00
38436;DHT22;24220;48.168;14.024;2023-04-06T06:28:40;8.00;50.00
38436;DHT22;24220;48.168;14.024;2023-04-06T06:31:07;8.00;50.00
38436;DHT22;24220;48.168;14.024;2023-04-06T06:33:40;8.10;49.70
38436;DHT22;24220;48.168;14.024;2023-04-06T06:36:09;8.20;49.40
38436;DHT22;24220;48.168;14.024;2023-04-06T06:38:39;8.30;49.60
38436;DHT22;24220;48.168;14.024;2023-04-06T06:41:09;8.40;49.50
38436;DHT22;24220;48.168;14.024;2023-04-06T06:43:36;8.40;49.40
38436;DHT22;24220;48.168;14.024;2023-04-06T06:46:06;8.60;49.30
38436;DHT22;24220;48.168;14.024;2023-04-06T06:48:33;8.60;49.00
38436;DHT22;24220;48.168;14.024;2023-04-06T06:51:00;8.60;49.00
38436;DHT22;24220;48.168;14.024;2023-04-06T06:53:28;8.70;49.00
38436;DHT22;24220;48.168;14.024;2023-04-06T06:55:55;8.70;48.80
38436;DHT22;24220;48.168;14.024;2023-04-06T06:58:28;8.70;48.70
38436;DHT22;24220;48.168;14.024;2023-04-06T07:00:58;8.70;48.50
38436;DHT22;24220;48.168;14.024;2023-04-06T07:03:28;8.70;48.90
38436;DHT22;24220;48.168;14.024;2023-04-06T07:05:59;8.70;49.20
38436;DHT22;24220;48.168;14.024;2023-04-06T07:08:26;8.70;49.30
38436;DHT22;24220;48.168;14.024;2023-04-06T07:10:56;8.80;49.30
38436;DHT22;24220;48.168;14.024;2023-04-06T07:13:26;8.80;49.50
38436;DHT22;24220;48.168;14.024;2023-04-06T07:15:56;8.80;49.40
38436;DHT22;24220;48.168;14.024;2023-04-06T07:18:23;8.90;49.40
38436;DHT22;24220;48.168;14.024;2023-04-06T07:20:51;8.90;49.50
38436;DHT22;24220;48.168;14.024;2023-04-06T07:23:18;9.00;49.30
38436;DHT22;24220;48.168;14.024;2023-04-06T07:25:48;9.00;49.20
38436;DHT22;24220;48.168;14.024;2023-04-06T07:28:18;9.20;49.10
38436;DHT22;24220;48.168;14.024;2023-04-06T07:30:45;9.20;49.70
38436;DHT22;24220;48.168;14.024;2023-04-06T07:33:12;9.30;49.00
38436;DHT22;24220;48.168;14.024;2023-04-06T07:35:40;9.30;49.10
38436;DHT22;24220;48.168;14.024;2023-04-06T07:38:07;9.40;49.10
38436;DHT22;24220;48.168;14.024;2023-04-06T07:40:34;9.40;49.00
38436;DHT22;24220;48.168;14.024;2023-04-06T07:43:02;9.50;48.90
38436;DHT22;24220;48.168;14.024;2023-04-06T07:45:34;9.60;48.90
38436;DHT22;24220;48.168;14.024;2023-04-06T07:48:02;9.60;49.10
38436;DHT22;24220;48.168;14.024;2023-04-06T07:50:29;9.70;49.10
38436;DHT22;24220;48.168;14.024;2023-04-06T07:52:57;9.70;49.20
38436;DHT22;24220;48.168;14.024;2023-04-06T07:55:27;9.80;49.10
38436;DHT22;24220;48.168;14.024;2023-04-06T07:57:54;9.90;48.90
38436;DHT22;24220;48.168;14.024;2023-04-06T08:00:24;9.90;48.90
38436;DHT22;24220;48.168;14.024;2023-04-06T08:02:51;10.00;49.00
38436;DHT22;24220;48.168;14.024;2023-04-06T08:05:21;10.10;48.70
38436;DHT22;24220;48.168;14.024;2023-04-06T08:07:48;10.10;49.10
38436;DHT22;24220;48.168;14.024;2023-04-06T08:10:18;10.20;48.80
38436;DHT22;24220;48.168;14.024;2023-04-06T08:12:45;10.30;48.60
38436;DHT22;24220;48.168;14.024;2023-04-06T08:15:13;10.40;48.40
38436;DHT22;24220;48.168;14.024;2023-04-06T08:17:40;10.50;48.50
38436;DHT22;24220;48.168;14.024;2023-04-06T08:20:08;10.50;48.50
38436;DHT22;24220;48.168;14.024;2023-04-06T08:22:35;10.60;48.40
38436;DHT22;24220;48.168;14.024;2023-04-06T08:25:03;10.70;48.60
38436;DHT22;24220;48.168;14.024;2023-04-06T08:27:31;10.80;48.50
38436;DHT22;24220;48.168;14.024;2023-04-06T08:30:01;10.90;48.70
38436;DHT22;24220;48.168;14.024;2023-04-06T08:32:30;11.00;48.80
38436;DHT22;24220;48.168;14.024;2023-04-06T08:35:03;11.10;49.00
38436;DHT22;24220;48.168;14.024;2023-04-06T08:37:31;11.30;49.20
38436;DHT22;24220;48.168;14.024;2023-04-06T08:39:58;11.50;49.10
38436;DHT22;24220;48.168;14.024;2023-04-06T08:42:26;11.70;48.80
38436;DHT22;24220;48.168;14.024;2023-04-06T08:44:55;12.00;47.60
38436;DHT22;24220;48.168;14.024;2023-04-06T08:47:23;12.20;47.70
38436;DHT22;24220;48.168;14.024;2023-04-06T08:49:51;12.30;47.10
38436;DHT22;24220;48.168;14.024;2023-04-06T08:52:19;12.50;46.90
38436;DHT22;24220;48.168;14.024;2023-04-06T08:54:49;12.60;46.60
38436;DHT22;24220;48.168;14.024;2023-04-06T08:57:18;12.70;46.60
38436;DHT22;24220;48.168;14.024;2023-04-06T08:59:46;12.80;46.10
38436;DHT22;24220;48.168;14.024;2023-04-06T09:02:18;12.90;45.80
38436;DHT22;24220;48.168;14.024;2023-04-06T09:04:48;13.00;45.30
38436;DHT22;24220;48.168;14.024;2023-04-06T09:07:16;13.10;44.90
38436;DHT22;24220;48.168;14.024;2023-04-06T09:09:43;13.20;45.30
38436;DHT22;24220;48.168;14.024;2023-04-06T09:12:28;13.30;45.30
38436;DHT22;24220;48.168;14.024;2023-04-06T09:14:58;13.40;44.60
38436;DHT22;24220;48.168;14.024;2023-04-06T09:17:28;13.50;44.70
38436;DHT22;24220;48.168;14.024;2023-04-06T09:19:56;13.50;45.40
38436;DHT22;24220;48.168;14.024;2023-04-06T09:22:38;13.70;44.10
38436;DHT22;24220;48.168;14.024;2023-04-06T09:25:09;13.80;44.30
38436;DHT22;24220;48.168;14.024;2023-04-06T09:27:45;13.80;44.30
38436;DHT22;24220;48.168;14.024;2023-04-06T09:30:17;13.90;44.20
38436;DHT22;24220;48.168;14.024;2023-04-06T09:32:51;14.00;43.90
38436;DHT22;24220;48.168;14.024;2023-04-06T09:35:20;14.10;44.30
38436;DHT22;24220;48.168;14.024;2023-04-06T09:37:51;14.20;43.90
38436;DHT22;24220;48.168;14.024;2023-04-06T09:40:19;14.20;43.20
38436;DHT22;24220;48.168;14.024;2023-04-06T09:42:53;14.30;43.00
38436;DHT22;24220;48.168;14.024;2023-04-06T09:45:29;14.40;42.60
38436;DHT22;24220;48.168;14.024;2023-04-06T09:47:58;14.50;42.10
38436;DHT22;24220;48.168;14.024;2023-04-06T09:50:31;14.50;40.70
38436;DHT22;24220;48.168;14.024;2023-04-06T09:53:03;14.60;41.90
38436;DHT22;24220;48.168;14.024;2023-04-06T09:55:43;14.60;40.20
38436;DHT22;24220;48.168;14.024;2023-04-06T09:58:13;14.70;40.40
38436;DHT22;24220;48.168;14.024;2023-04-06T10:01:08;14.70;40.30
38436;DHT22;24220;48.168;14.024;2023-04-06T10:03:45;14.80;40.20
38436;DHT22;24220;48.168;14.024;2023-04-06T10:06:15;14.90;39.80
38436;DHT22;24220;48.168;14.024;2023-04-06T10:08:46;14.90;40.50
38436;DHT22;24220;48.168;14.024;2023-04-06T10:11:15;14.90;40.40
38436;DHT22;24220;48.168;14.024;2023-04-06T10:13:45;15.00;41.20
38436;DHT22;24220;48.168;14.024;2023-04-06T10:16:14;15.00;40.70
38436;DHT22;24220;48.168;14.024;2023-04-06T10:18:50;15.10;41.60
38436;DHT22;24220;48.168;14.024;2023-04-06T10:21:21;15.20;40.90
38436;DHT22;24220;48.168;14.024;2023-04-06T10:24:06;15.20;41.50
38436;DHT22;24220;48.168;14.024;2023-04-06T10:26:36;15.30;40.60
38436;DHT22;24220;48.168;14.024;2023-04-06T10:29:06;15.40;40.60
38436;DHT22;24220;48.168;14.024;2023-04-06T10:31:39;15.50;40.60
38436;DHT22;24220;48.168;14.024;2023-04-06T10:34:11;15.60;39.50
38436;DHT22;24220;48.168;14.024;2023-04-06T10:36:41;15.60;39.70
38436;DHT22;24220;48.168;14.024;2023-04-06T10:39:11;15.70;39.00
38436;DHT22;24220;48.168;14.024;2023-04-06T10:41:45;15.80;40.10
38436;DHT22;24220;48.168;14.024;2023-04-06T10:44:22;15.80;40.30
38436;DHT22;24220;48.168;14.024;2023-04-06T10:47:15;15.90;40.20
38436;DHT22;24220;48.168;14.024;2023-04-06T10:49:46;16.00;40.30
38436;DHT22;24220;48.168;14.024;2023-04-06T10:52:13;16.00;38.30
38436;DHT22;24220;48.168;14.024;2023-04-06T10:54:42;16.00;38.90
38436;DHT22;24220;48.168;14.024;2023-04-06T10:57:12;16.10;39.30
38436;DHT22;24220;48.168;14.024;2023-04-06T10:59:43;16.20;39.50
38436;DHT22;24220;48.168;14.024;2023-04-06T11:02:18;16.20;38.60
38436;DHT22;24220;48.168;14.024;2023-04-06T11:04:54;16.30;40.00
38436;DHT22;24220;48.168;14.024;2023-04-06T11:07:24;16.30;38.10
38436;DHT22;24220;48.168;14.024;2023-04-06T11:09:57;16.30;38.30
38436;DHT22;24220;48.168;14.024;2023-04-06T11:12:41;16.30;38.40
38436;DHT22;24220;48.168;14.024;2023-04-06T11:15:09;16.40;38.00
38436;DHT22;24220;48.168;14.024;2023-04-06T11:17:39;16.40;38.10
38436;DHT22;24220;48.168;14.024;2023-04-06T11:20:11;16.40;38.40
38436;DHT22;24220;48.168;14.024;2023-04-06T11:22:53;16.40;38.20
38436;DHT22;24220;48.168;14.024;2023-04-06T11:25:22;16.50;38.10
38436;DHT22;24220;48.168;14.024;2023-04-06T11:27:50;16.50;39.10
38436;DHT22;24220;48.168;14.024;2023-04-06T11:30:18;16.60;38.70
38436;DHT22;24220;48.168;14.024;2023-04-06T11:32:45;16.60;37.70
38436;DHT22;24220;48.168;14.024;2023-04-06T11:35:20;16.70;38.10
38436;DHT22;24220;48.168;14.024;2023-04-06T11:37:52;16.70;37.70
38436;DHT22;24220;48.168;14.024;2023-04-06T11:40:22;16.80;37.80
38436;DHT22;24220;48.168;14.024;2023-04-06T11:42:55;16.80;37.10
38436;DHT22;24220;48.168;14.024;2023-04-06T11:45:23;16.90;37.80
38436;DHT22;24220;48.168;14.024;2023-04-06T11:47:57;17.00;38.70
38436;DHT22;24220;48.168;14.024;2023-04-06T11:50:34;17.00;38.80
38436;DHT22;24220;48.168;14.024;2023-04-06T11:53:02;17.00;37.50
38436;DHT22;24220;48.168;14.024;2023-04-06T11:55:40;17.10;37.00
38436;DHT22;24220;48.168;14.024;2023-04-06T11:58:07;17.20;37.00
38436;DHT22;24220;48.168;14.024;2023-04-06T12:00:35;17.20;37.10
38436;DHT22;24220;48.168;14.024;2023-04-06T12:03:04;17.30;38.00
38436;DHT22;24220;48.168;14.024;2023-04-06T12:05:33;17.40;37.80
38436;DHT22;24220;48.168;14.024;2023-04-06T12:08:03;17.40;38.40
38436;DHT22;24220;48.168;14.024;2023-04-06T12:10:31;17.50;36.90
38436;DHT22;24220;48.168;14.024;2023-04-06T12:13:01;17.60;37.80
38436;DHT22;24220;48.168;14.024;2023-04-06T12:15:28;17.60;37.20
38436;DHT22;24220;48.168;14.024;2023-04-06T12:17:57;17.70;36.50
38436;DHT22;24220;48.168;14.024;2023-04-06T12:20:25;17.70;35.70
38436;DHT22;24220;48.168;14.024;2023-04-06T12:22:56;17.80;36.80
38436;DHT22;24220;48.168;14.024;2023-04-06T12:25:23;17.80;35.80
38436;DHT22;24220;48.168;14.024;2023-04-06T12:27:50;17.90;36.60
38436;DHT22;24220;48.168;14.024;2023-04-06T12:30:18;17.90;36.20
38436;DHT22;24220;48.168;14.024;2023-04-06T12:32:47;18.00;37.10
38436;DHT22;24220;48.168;14.024;2023-04-06T12:35:19;18.00;37.10
38436;DHT22;24220;48.168;14.024;2023-04-06T12:37:47;18.10;36.30
38436;DHT22;24220;48.168;14.024;2023-04-06T12:40:17;18.10;36.50
38436;DHT22;24220;48.168;14.024;2023-04-06T12:42:47;18.10;35.90
38436;DHT22;24220;48.168;14.024;2023-04-06T12:45:15;18.20;36.40
38436;DHT22;24220;48.168;14.024;2023-04-06T12:47:47;18.20;36.30
38436;DHT22;24220;48.168;14.024;2023-04-06T12:50:14;18.30;35.10
38436;DHT22;24220;48.168;14.024;2023-04-06T12:52:42;18.30;34.80
38436;DHT22;24220;48.168;14.024;2023-04-06T12:55:09;18.40;33.70
38436;DHT22;24220;48.168;14.024;2023-04-06T12:57:39;18.40;35.10
38436;DHT22;24220;48.168;14.024;2023-04-06T13:00:08;18.40;34.70
38436;DHT22;24220;48.168;14.024;2023-04-06T13:02:35;18.50;35.00
38436;DHT22;24220;48.168;14.024;2023-04-06T13:05:06;18.50;34.90
38436;DHT22;24220;48.168;14.024;2023-04-06T13:07:33;18.60;35.20
38436;DHT22;24220;48.168;14.024;2023-04-06T13:10:00;18.60;35.10
38436;DHT22;24220;48.168;14.024;2023-04-06T13:12:28;18.60;35.00
38436;DHT22;24220;48.168;14.024;2023-04-06T13:14:55;18.60;34.10
38436;DHT22;24220;48.168;14.024;2023-04-06T13:17:22;18.70;34.70
38436;DHT22;24220;48.168;14.024;2023-04-06T13:19:53;18.70;34.10
38436;DHT22;24220;48.168;14.024;2023-04-06T13:22:20;18.70;33.50
38436;DHT22;24220;48.168;14.024;2023-04-06T13:24:47;18.70;33.60
38436;DHT22;24220;48.168;14.024;2023-04-06T13:27:15;18.70;33.70
38436;DHT22;24220;48.168;14.024;2023-04-06T13:29:45;18.70;34.20
38436;DHT22;24220;48.168;14.024;2023-04-06T13:32:12;18.60;33.90
38436;DHT22;24220;48.168;14.024;2023-04-06T13:34:44;18.50;33.10
38436;DHT22;24220;48.168;14.024;2023-04-06T13:37:12;18.40;32.80
38436;DHT22;24220;48.168;14.024;2023-04-06T13:39:40;18.40;33.80
38436;DHT22;24220;48.168;14.024;2023-04-06T13:42:09;18.30;33.60
38436;DHT22;24220;48.168;14.024;2023-04-06T13:44:37;18.20;33.00
38436;DHT22;24220;48.168;14.024;2023-04-06T13:47:06;18.10;32.70
38436;DHT22;24220;48.168;14.024;2023-04-06T13:49:34;18.00;33.30
38436;DHT22;24220;48.168;14.024;2023-04-06T13:52:04;17.90;33.20
38436;DHT22;24220;48.168;14.024;2023-04-06T13:54:34;17.80;33.40
38436;DHT22;24220;48.168;14.024;2023-04-06T13:57:02;17.80;32.80
38436;DHT22;24220;48.168;14.024;2023-04-06T13:59:35;17.70;33.10
38436;DHT22;24220;48.168;14.024;2023-04-06T14:02:07;17.60;33.10
38436;DHT22;24220;48.168;14.024;2023-04-06T14:04:35;17.50;33.20
38436;DHT22;24220;48.168;14.024;2023-04-06T14:07:05;17.40;33.00
38436;DHT22;24220;48.168;14.024;2023-04-06T14:09:34;17.40;33.20
38436;DHT22;24220;48.168;14.024;2023-04-06T14:12:02;17.30;33.30
38436;DHT22;24220;48.168;14.024;2023-04-06T14:14:29;17.30;33.50
38436;DHT22;24220;48.168;14.024;2023-04-06T14:16:56;17.20;33.30
38436;DHT22;24220;48.168;14.024;2023-04-06T14:19:23;17.20;33.60
38436;DHT22;24220;48.168;14.024;2023-04-06T14:21:51;17.10;33.80
38436;DHT22;24220;48.168;14.024;2023-04-06T14:24:18;17.10;33.80
38436;DHT22;24220;48.168;14.024;2023-04-06T14:26:46;17.00;33.80
38436;DHT22;24220;48.168;14.024;2023-04-06T14:29:13;17.00;33.80
38436;DHT22;24220;48.168;14.024;2023-04-06T14:31:40;17.00;34.00
38436;DHT22;24220;48.168;14.024;2023-04-06T14:34:08;16.90;33.70
38436;DHT22;24220;48.168;14.024;2023-04-06T14:36:35;16.90;33.50
38436;DHT22;24220;48.168;14.024;2023-04-06T14:39:07;16.90;33.30
38436;DHT22;24220;48.168;14.024;2023-04-06T14:41:37;16.80;33.80
38436;DHT22;24220;48.168;14.024;2023-04-06T14:44:04;16.80;33.70
38436;DHT22;24220;48.168;14.024;2023-04-06T14:46:32;16.80;33.90
38436;DHT22;24220;48.168;14.024;2023-04-06T14:49:02;16.80;34.30
38436;DHT22;24220;48.168;14.024;2023-04-06T14:51:30;16.80;33.60
38436;DHT22;24220;48.168;14.024;2023-04-06T14:53:57;16.80;33.40
38436;DHT22;24220;48.168;14.024;2023-04-06T14:56:26;16.70;33.50
38436;DHT22;24220;48.168;14.024;2023-04-06T14:58:56;16.70;33.40
38436;DHT22;24220;48.168;14.024;2023-04-06T15:01:24;16.70;33.90
38436;DHT22;24220;48.168;14.024;2023-04-06T15:03:52;16.70;34.10
38436;DHT22;24220;48.168;14.024;2023-04-06T15:06:19;16.60;33.50
38436;DHT22;24220;48.168;14.024;2023-04-06T15:08:49;16.60;33.70
38436;DHT22;24220;48.168;14.024;2023-04-06T15:11:19;16.60;33.70
38436;DHT22;24220;48.168;14.024;2023-04-06T15:13:49;16.50;33.50
38436;DHT22;24220;48.168;14.024;2023-04-06T15:16:16;16.50;34.10
38436;DHT22;24220;48.168;14.024;2023-04-06T15:18:46;16.50;33.40
38436;DHT22;24220;48.168;14.024;2023-04-06T15:21:14;16.50;33.40
38436;DHT22;24220;48.168;14.024;2023-04-06T15:23:41;16.40;33.50
38436;DHT22;24220;48.168;14.024;2023-04-06T15:26:11;16.40;33.90
38436;DHT22;24220;48.168;14.024;2023-04-06T15:28:39;16.40;33.90
38436;DHT22;24220;48.168;14.024;2023-04-06T15:31:18;16.40;34.30
38436;DHT22;24220;48.168;14.024;2023-04-06T15:34:03;16.30;34.20
38436;DHT22;24220;48.168;14.024;2023-04-06T15:36:30;16.30;34.40